createdAt,value
2018-10-05T00:00:26.213Z,26.48
2018-10-05T00:02:56.509Z,27.22
2018-10-05T00:05:27.180Z,26.53
2018-10-05T00:07:57.592Z,26.15
2018-10-05T00:10:28.247Z,25.85
2018-10-05T00:12:59.143Z,25.20
2018-10-05T00:15:30.179Z,25.63
2018-10-05T00:18:00.303Z,31.27
2018-10-05T00:20:31.416Z,33.73
2018-10-05T00:23:01.904Z,37.33
2018-10-05T00:25:32.117Z,39.90
2018-10-05T00:28:02.294Z,39.60
2018-10-05T00:30:32.894Z,39.30
2018-10-05T00:33:03.555Z,41.18
2018-10-05T00:35:33.851Z,40.23
2018-10-05T00:38:03.960Z,41.30
2018-10-05T00:40:34.760Z,40.08
2018-10-05T00:43:05.932Z,39.42
2018-10-05T00:45:36.319Z,39.15
2018-10-05T00:48:06.801Z,38.50
2018-10-05T00:50:37.071Z,38.60
2018-10-05T00:53:07.181Z,36.53
2018-10-05T00:55:37.427Z,36.70
2018-10-05T00:58:08.120Z,36.88
2018-10-05T01:03:13.430Z,33.50
2018-10-05T01:05:43.573Z,34.27
2018-10-05T01:08:13.897Z,33.17
2018-10-05T01:10:44.273Z,32.47
2018-10-05T01:15:49.402Z,30.83
2018-10-05T01:18:20.387Z,29.95
2018-10-05T01:20:51.243Z,28.40
2018-10-05T01:23:22.242Z,26.52
2018-10-05T01:25:52.966Z,29.80
2018-10-05T01:30:59.547Z,34.33
2018-10-05T01:33:30.713Z,34.13
2018-10-05T01:36:02.278Z,32.83
2018-10-05T01:38:32.525Z,31.20
2018-10-05T01:41:03.121Z,30.52
2018-10-05T01:43:33.442Z,31.70
2018-10-05T01:46:03.892Z,29.43
2018-10-05T01:48:34.561Z,30.57
2018-10-05T01:51:04.702Z,27.25
2018-10-05T01:53:35.079Z,26.68
2018-10-05T01:56:05.263Z,30.07
2018-10-05T01:58:36.651Z,34.17
2018-10-05T02:03:48.674Z,25.30
2018-10-05T02:06:18.988Z,19.30
2018-10-05T02:08:49.556Z,21.40
2018-10-05T02:11:19.950Z,21.52
2018-10-05T02:13:50.471Z,23.85
2018-10-05T02:16:20.661Z,24.03
2018-10-05T02:18:51.574Z,24.73
2018-10-05T02:21:22.048Z,24.60
2018-10-05T02:23:52.876Z,26.07
2018-10-05T02:26:23.232Z,27.07
2018-10-05T02:28:53.514Z,26.80
2018-10-05T02:31:23.786Z,25.08
2018-10-05T02:33:53.738Z,25.87
2018-10-05T02:36:24.383Z,27.63
2018-10-05T02:38:54.513Z,25.63
2018-10-05T02:41:25.341Z,25.80
2018-10-05T02:43:55.632Z,24.23
2018-10-05T02:46:25.717Z,24.55
2018-10-05T02:48:56.366Z,24.07
2018-10-05T02:51:26.643Z,24.17
2018-10-05T02:53:56.977Z,23.10
2018-10-05T02:56:27.069Z,22.37
2018-10-05T02:58:57.551Z,21.27
2018-10-05T03:01:44.250Z,21.50
2018-10-05T03:04:14.443Z,30.23
2018-10-05T03:06:45.488Z,34.13
2018-10-05T03:09:20.279Z,36.27
2018-10-05T03:11:50.559Z,35.45
2018-10-05T03:14:20.950Z,36.20
2018-10-05T03:16:51.620Z,35.63
2018-10-05T03:19:22.063Z,33.95
2018-10-05T03:21:52.132Z,34.48
2018-10-05T03:24:22.496Z,34.73
2018-10-05T03:26:52.738Z,34.50
2018-10-05T03:29:23.313Z,33.58
2018-10-05T03:31:53.427Z,34.07
2018-10-05T03:34:23.997Z,33.35
2018-10-05T03:36:54.306Z,33.63
2018-10-05T03:41:59.542Z,31.97
2018-10-05T03:47:04.715Z,34.20
2018-10-05T03:49:35.216Z,29.93
2018-10-05T03:56:59.231Z,29.23
2018-10-05T03:59:29.310Z,30.53
2018-10-05T04:02:00.221Z,30.13
2018-10-05T04:04:31.239Z,28.67
2018-10-05T04:07:01.857Z,31.65
2018-10-05T04:09:31.901Z,28.80
2018-10-05T04:12:02.105Z,28.17
2018-10-05T04:14:32.260Z,30.77
2018-10-05T04:17:03.245Z,30.55
2018-10-05T04:19:33.508Z,31.23
2018-10-05T04:22:03.826Z,30.75
2018-10-05T04:24:34.956Z,30.47
2018-10-05T04:27:05.513Z,30.03
2018-10-05T04:29:35.645Z,28.77
2018-10-05T04:32:09.056Z,28.12
2018-10-05T04:34:48.746Z,29.80
2018-10-05T04:39:56.781Z,30.43
2018-10-05T04:42:28.594Z,33.77
2018-10-05T04:45:02.918Z,33.42
2018-10-05T04:47:35.748Z,32.20
2018-10-05T04:50:06.711Z,29.23
2018-10-05T04:52:39.891Z,31.02
2018-10-05T04:55:12.108Z,31.90
2018-10-05T04:57:42.591Z,31.87
2018-10-05T05:00:15.213Z,32.80
2018-10-05T05:02:49.762Z,30.73
2018-10-05T05:07:57.709Z,27.23
2018-10-05T05:10:28.148Z,29.13
2018-10-05T05:15:34.454Z,27.10
2018-10-05T05:18:08.365Z,27.42
2018-10-05T05:23:17.842Z,23.60
2018-10-05T05:25:50.012Z,23.60
2018-10-05T05:31:01.886Z,23.60
2018-10-05T05:33:35.425Z,23.37
2018-10-05T05:36:05.273Z,23.90
2018-10-05T05:38:35.310Z,26.23
2018-10-05T05:41:06.457Z,25.92
2018-10-05T05:43:36.670Z,29.50
2018-10-05T05:46:07.514Z,31.48
2018-10-05T05:48:38.398Z,32.33
2018-10-05T05:51:10.846Z,33.00
2018-10-05T05:56:17.965Z,30.47
2018-10-05T06:01:26.605Z,23.13
2018-10-05T06:03:58.826Z,21.65
2018-10-05T06:06:31.729Z,18.90
2018-10-05T06:09:11.985Z,19.37
2018-10-05T06:11:41.816Z,24.43
2018-10-05T06:14:12.198Z,20.70
2018-10-05T06:16:42.087Z,22.98
2018-10-05T06:19:18.599Z,26.35
2018-10-05T06:21:50.189Z,28.67
2018-10-05T06:24:21.739Z,26.25
2018-10-05T06:29:27.128Z,23.23
2018-10-05T06:31:59.069Z,25.15
2018-10-05T06:34:29.623Z,25.23
2018-10-05T06:37:00.947Z,24.07
2018-10-05T06:39:32.870Z,23.57
2018-10-05T06:42:04.994Z,25.67
2018-10-05T06:44:36.659Z,26.40
2018-10-05T06:47:13.990Z,25.92
2018-10-05T06:49:45.930Z,26.23
2018-10-05T06:52:17.997Z,26.97
2018-10-05T06:54:48.847Z,26.97
2018-10-05T06:57:20.487Z,27.67
2018-10-05T06:59:52.299Z,28.27
2018-10-05T07:02:23.786Z,28.17
2018-10-05T07:07:29.218Z,27.23
2018-10-05T07:09:59.878Z,28.67
2018-10-05T07:12:31.849Z,26.17
2018-10-05T07:15:03.253Z,22.52
2018-10-05T07:17:33.811Z,20.90
2018-10-05T07:20:04.979Z,25.55
2018-10-05T07:22:37.271Z,27.27
2018-10-05T07:25:08.433Z,23.60
2018-10-05T07:27:39.466Z,24.73
2018-10-05T07:30:10.828Z,25.23
2018-10-05T07:32:41.625Z,23.55
2018-10-05T07:35:13.596Z,23.17
2018-10-05T07:37:44.517Z,21.17
2018-10-05T07:40:16.403Z,19.02
2018-10-05T07:42:48.593Z,18.17
2018-10-05T07:45:19.191Z,16.05
2018-10-05T07:47:54.222Z,15.50
2018-10-05T07:50:24.920Z,15.00
2018-10-05T07:52:56.027Z,15.23
2018-10-05T07:55:28.093Z,16.53
2018-10-05T07:57:57.958Z,17.57
2018-10-05T08:00:30.630Z,18.13
2018-10-05T08:03:01.804Z,18.60
2018-10-05T08:05:32.613Z,17.32
2018-10-05T08:08:05.033Z,16.48
2018-10-05T08:10:36.207Z,15.33
2018-10-05T08:15:42.559Z,17.50
2018-10-05T08:18:13.737Z,18.40
2018-10-05T08:20:43.957Z,17.83
2018-10-05T08:23:15.642Z,18.55
2018-10-05T08:25:46.966Z,19.40
2018-10-05T08:28:19.426Z,15.70
2018-10-05T08:30:50.329Z,15.63
2018-10-05T08:33:22.465Z,15.30
2018-10-05T08:35:53.892Z,14.10
2018-10-05T08:38:25.730Z,13.63
2018-10-05T08:41:03.250Z,13.90
2018-10-05T08:43:34.040Z,13.73
2018-10-05T08:46:06.026Z,13.60
2018-10-05T08:48:38.448Z,15.03
2018-10-05T08:51:10.227Z,14.50
2018-10-05T08:53:42.488Z,14.13
2018-10-05T08:56:13.997Z,15.30
2018-10-05T08:58:44.511Z,14.07
2018-10-05T09:03:50.570Z,14.17
2018-10-05T09:06:22.254Z,14.20
2018-10-05T09:08:53.396Z,15.03
2018-10-05T09:11:24.960Z,13.43
2018-10-05T09:13:55.241Z,13.53
2018-10-05T09:16:26.643Z,11.77
2018-10-05T09:18:56.904Z,12.15
2018-10-05T09:21:29.076Z,11.00
2018-10-05T09:24:00.187Z,10.98
2018-10-05T09:29:09.712Z,10.77
2018-10-05T09:31:41.791Z,10.60
2018-10-05T09:34:12.395Z,12.40
2018-10-05T09:36:43.004Z,11.50
2018-10-05T09:41:48.502Z,11.90
2018-10-05T09:44:20.694Z,11.65
2018-10-05T09:46:51.916Z,12.05
2018-10-05T09:49:23.453Z,11.78
2018-10-05T09:51:53.381Z,10.55
2018-10-05T09:54:24.293Z,9.78
2018-10-05T09:56:56.179Z,10.40
2018-10-05T09:59:27.992Z,10.97
2018-10-05T10:02:05.114Z,11.28
2018-10-05T10:04:36.820Z,10.43
2018-10-05T10:09:48.674Z,10.07
2018-10-05T10:12:20.234Z,10.63
2018-10-05T10:14:50.105Z,10.73
2018-10-05T10:17:21.719Z,10.70
2018-10-05T10:19:54.706Z,10.88
2018-10-05T10:22:30.512Z,10.90
2018-10-05T10:25:02.269Z,10.90
2018-10-05T10:27:33.011Z,10.27
2018-10-05T10:30:03.980Z,10.55
2018-10-05T10:32:35.637Z,8.85
2018-10-05T10:35:06.361Z,8.93
2018-10-05T10:37:38.051Z,9.43
2018-10-05T10:40:09.641Z,9.68
2018-10-05T10:42:41.114Z,8.03
2018-10-05T10:47:48.054Z,7.70
2018-10-05T10:50:20.242Z,7.43
2018-10-05T10:52:51.284Z,7.07
2018-10-05T10:55:22.514Z,7.17
2018-10-05T10:57:54.130Z,5.93
2018-10-05T11:00:25.606Z,5.05
2018-10-05T11:02:57.733Z,5.53
2018-10-05T11:08:05.592Z,5.07
2018-10-05T11:10:38.200Z,5.50
2018-10-05T11:13:09.509Z,5.10
2018-10-05T11:15:41.517Z,5.33
2018-10-05T11:18:14.337Z,5.55
2018-10-05T11:20:46.693Z,5.33
2018-10-05T11:23:18.076Z,5.00
2018-10-05T11:25:49.222Z,4.65
2018-10-05T11:28:20.595Z,3.77
2018-10-05T11:30:51.250Z,3.67
2018-10-05T11:33:22.133Z,3.03
2018-10-05T11:35:52.841Z,3.17
2018-10-05T11:38:25.433Z,3.27
2018-10-05T11:40:56.151Z,3.30
2018-10-05T11:43:27.618Z,3.40
2018-10-05T11:45:59.071Z,3.60
2018-10-05T11:48:31.403Z,3.33
2018-10-05T11:51:10.146Z,4.55
2018-10-05T11:53:41.694Z,3.08
2018-10-05T11:56:15.018Z,3.60
2018-10-05T11:58:45.725Z,3.40
2018-10-05T12:01:17.860Z,3.08
2018-10-05T12:03:48.793Z,3.70
2018-10-05T12:06:22.387Z,3.98
2018-10-05T12:08:53.325Z,3.77
2018-10-05T12:13:58.622Z,3.13
2018-10-05T12:16:29.741Z,3.40
2018-10-05T12:18:59.703Z,3.27
2018-10-05T12:21:31.105Z,4.10
2018-10-05T12:24:01.664Z,4.33
2018-10-05T12:26:33.493Z,8.87
2018-10-05T12:29:04.863Z,5.22
2018-10-05T12:31:35.908Z,4.30
2018-10-05T12:34:07.050Z,4.10
2018-10-05T12:36:41.810Z,10.20
2018-10-05T12:39:17.778Z,4.23
2018-10-05T12:41:47.812Z,3.60
2018-10-05T12:44:18.979Z,3.75
2018-10-05T12:46:50.702Z,3.72
2018-10-05T12:49:24.024Z,4.90
2018-10-05T12:51:55.804Z,3.77
2018-10-05T12:54:29.776Z,4.62
2018-10-05T12:57:02.196Z,3.95
2018-10-05T12:59:32.853Z,4.03
2018-10-05T13:02:02.658Z,3.80
2018-10-05T13:04:37.781Z,4.45
2018-10-05T13:07:09.762Z,4.17
2018-10-05T13:09:41.554Z,3.80
2018-10-05T13:14:51.096Z,3.90
2018-10-05T13:20:07.425Z,3.33
2018-10-05T13:22:38.231Z,3.60
2018-10-05T13:25:10.009Z,3.70
2018-10-05T13:27:40.367Z,3.98
2018-10-05T13:32:49.970Z,3.63
2018-10-05T13:35:21.261Z,3.58
2018-10-05T13:37:52.403Z,3.47
2018-10-05T13:40:26.051Z,3.60
2018-10-05T13:42:56.609Z,3.35
2018-10-05T13:48:01.970Z,3.33
2018-10-05T13:50:32.320Z,3.58
2018-10-05T13:53:03.578Z,3.60
2018-10-05T13:55:35.522Z,3.60
2018-10-05T13:58:05.611Z,2.00
2018-10-05T14:00:36.013Z,2.53
2018-10-05T14:07:59.016Z,1.90
2018-10-05T14:10:30.622Z,2.00
2018-10-05T14:13:02.216Z,2.08
2018-10-05T14:15:32.934Z,1.87
2018-10-05T14:18:03.777Z,1.60
2018-10-05T14:20:35.453Z,1.35
2018-10-05T14:23:07.085Z,1.23
2018-10-05T14:25:38.421Z,1.20
2018-10-05T14:28:09.948Z,1.90
2018-10-05T14:30:41.350Z,1.40
2018-10-05T14:33:12.350Z,1.12
2018-10-05T14:35:42.532Z,1.55
2018-10-05T14:38:13.629Z,1.32
2018-10-05T14:40:49.730Z,1.42
2018-10-05T14:43:21.924Z,1.57
2018-10-05T14:45:53.560Z,1.32
2018-10-05T14:48:24.528Z,1.10
2018-10-05T14:50:57.918Z,1.10
2018-10-05T14:53:29.136Z,1.20
2018-10-05T14:55:59.436Z,1.00
2018-10-05T14:58:29.576Z,1.10
2018-10-05T15:01:01.543Z,0.90
2018-10-05T15:03:33.201Z,2.25
2018-10-05T15:06:03.979Z,1.47
2018-10-05T15:08:35.602Z,1.20
2018-10-05T15:11:07.398Z,1.12
2018-10-05T15:13:41.161Z,2.33
2018-10-05T15:16:12.111Z,2.00
2018-10-05T15:18:43.603Z,1.32
2018-10-05T15:21:15.231Z,1.92
2018-10-05T15:23:45.936Z,2.20
2018-10-05T15:26:16.854Z,2.33
2018-10-05T15:28:46.846Z,1.07
2018-10-05T15:31:18.096Z,2.03
2018-10-05T15:33:48.334Z,1.70
2018-10-05T15:36:18.789Z,3.27
2018-10-05T15:41:24.003Z,1.87
2018-10-05T15:43:54.272Z,1.82
2018-10-05T15:47:13.401Z,1.20
2018-10-05T15:49:44.200Z,1.40
2018-10-05T15:52:14.878Z,1.67
2018-10-05T15:54:45.230Z,1.37
2018-10-05T15:57:15.074Z,1.50
2018-10-05T16:02:21.050Z,1.23
2018-10-05T16:04:50.897Z,1.00
2018-10-05T16:09:55.674Z,1.40
2018-10-05T16:12:25.671Z,1.30
2018-10-05T16:14:55.792Z,1.12
2018-10-05T16:17:29.047Z,1.10
2018-10-05T16:19:59.299Z,1.40
2018-10-05T16:22:33.536Z,2.03
2018-10-05T16:25:03.642Z,1.77
2018-10-05T16:27:34.035Z,3.27
2018-10-05T16:30:04.256Z,4.17
2018-10-05T16:32:34.269Z,4.20
2018-10-05T16:35:05.035Z,2.73
2018-10-05T16:40:10.336Z,3.10
2018-10-05T16:42:40.496Z,2.63
2018-10-05T16:45:12.007Z,1.53
2018-10-05T16:50:17.161Z,2.20
2018-10-05T16:52:47.044Z,1.87
2018-10-05T16:57:51.762Z,2.60
2018-10-05T17:00:23.182Z,3.22
2018-10-05T17:02:53.043Z,3.35
2018-10-05T17:05:23.121Z,2.62
2018-10-05T17:07:53.705Z,2.92
2018-10-05T17:10:23.712Z,2.93
2018-10-05T17:12:54.107Z,3.10
2018-10-05T17:15:24.244Z,2.17
2018-10-05T17:17:54.070Z,3.97
2018-10-05T17:20:24.201Z,3.80
2018-10-05T17:22:54.553Z,4.00
2018-10-05T17:27:59.287Z,3.70
2018-10-05T17:30:29.739Z,3.80
2018-10-05T17:32:59.706Z,4.05
2018-10-05T17:35:29.455Z,3.87
2018-10-05T17:37:59.644Z,6.17
2018-10-05T17:43:04.173Z,4.13
2018-10-05T17:45:33.915Z,5.80
2018-10-05T17:48:04.571Z,4.70
2018-10-05T17:50:34.578Z,4.33
2018-10-05T17:53:04.452Z,6.00
2018-10-05T17:55:34.456Z,5.40
2018-10-05T17:58:04.430Z,6.10
2018-10-05T18:00:34.663Z,6.00
2018-10-05T18:03:04.799Z,6.87
2018-10-05T18:05:35.269Z,3.90
2018-10-05T18:08:05.293Z,4.90
2018-10-05T18:10:36.097Z,4.47
2018-10-05T18:13:06.246Z,4.05
2018-10-05T18:15:36.404Z,5.83
2018-10-05T18:18:06.599Z,4.83
2018-10-05T18:20:36.458Z,3.87
2018-10-05T18:23:06.473Z,3.60
2018-10-05T18:25:36.870Z,4.60
2018-10-05T18:28:07.469Z,3.90
2018-10-05T18:30:37.427Z,4.70
2018-10-05T18:33:07.254Z,3.70
2018-10-05T18:35:38.222Z,4.43
2018-10-05T18:38:08.607Z,4.13
2018-10-05T18:40:45.665Z,4.47
2018-10-05T18:43:16.065Z,3.57
2018-10-05T18:45:46.829Z,4.62
2018-10-05T18:48:16.811Z,3.95
2018-10-05T18:50:47.375Z,4.73
2018-10-05T18:53:17.282Z,3.75
2018-10-05T18:58:22.061Z,3.93
2018-10-05T19:00:51.937Z,4.42
2018-10-05T19:03:22.057Z,6.47
2018-10-05T19:05:52.149Z,5.15
2018-10-05T19:08:22.195Z,3.72
2018-10-05T19:10:52.546Z,4.50
2018-10-05T19:13:22.435Z,4.20
2018-10-05T19:15:52.336Z,5.47
2018-10-05T19:18:22.233Z,5.30
2018-10-05T19:20:52.365Z,6.10
2018-10-05T19:27:08.491Z,5.35
2018-10-05T19:29:40.178Z,5.20
2018-10-05T19:32:10.366Z,5.30
2018-10-05T19:37:15.401Z,7.53
2018-10-05T19:39:45.904Z,5.20
2018-10-05T19:42:16.397Z,5.83
2018-10-05T19:44:46.378Z,6.70
2018-10-05T19:47:16.465Z,6.22
2018-10-05T19:49:46.481Z,7.83
2018-10-05T19:52:16.568Z,7.92
2018-10-05T19:54:46.742Z,7.60
2018-10-05T19:57:16.962Z,7.10
2018-10-05T19:59:47.143Z,6.20
2018-10-05T20:02:17.054Z,6.72
2018-10-05T20:04:47.236Z,6.83
2018-10-05T20:07:17.199Z,5.08
2018-10-05T20:09:47.493Z,4.92
2018-10-05T20:12:17.594Z,6.65
2018-10-05T20:14:47.534Z,4.90
2018-10-05T20:17:17.886Z,6.35
2018-10-05T20:19:47.836Z,5.72
2018-10-05T20:22:17.818Z,5.70
2018-10-05T20:24:47.768Z,7.35
2018-10-05T20:27:18.353Z,5.50
2018-10-05T20:29:49.020Z,6.53
2018-10-05T20:32:19.357Z,7.93
2018-10-05T20:34:49.427Z,6.63
2018-10-05T20:37:20.284Z,6.12
2018-10-05T20:39:50.701Z,4.23
2018-10-05T20:42:21.113Z,7.60
2018-10-05T20:44:51.606Z,6.78
2018-10-05T20:47:21.955Z,7.12
2018-10-05T20:49:51.912Z,8.35
2018-10-05T20:52:22.061Z,8.40
2018-10-05T20:54:51.976Z,7.95
2018-10-05T20:57:22.498Z,7.62
2018-10-05T20:59:52.654Z,6.43
2018-10-05T21:02:22.819Z,6.70
2018-10-05T21:04:52.957Z,6.60
2018-10-05T21:07:23.471Z,7.37
2018-10-05T21:09:53.702Z,6.45
2018-10-05T21:12:23.569Z,5.83
2018-10-05T21:14:53.498Z,7.37
2018-10-05T21:17:23.892Z,6.33
2018-10-05T21:19:54.558Z,7.00
2018-10-05T21:22:24.645Z,6.97
2018-10-05T21:24:55.307Z,7.37
2018-10-05T21:27:25.684Z,7.23
2018-10-05T21:29:59.815Z,8.48
2018-10-05T21:32:30.545Z,6.60
2018-10-05T21:35:00.711Z,9.18
2018-10-05T21:37:31.056Z,6.87
2018-10-05T21:40:01.676Z,7.08
2018-10-05T21:42:31.881Z,6.47
2018-10-05T21:45:02.481Z,7.05
2018-10-05T21:47:32.532Z,8.33
2018-10-05T21:50:05.322Z,8.00
2018-10-05T21:52:35.840Z,8.27
2018-10-05T21:55:06.022Z,6.67
2018-10-05T21:57:36.097Z,6.75
2018-10-05T22:00:07.268Z,7.60
2018-10-05T22:02:37.477Z,7.72
2018-10-05T22:05:08.570Z,7.20
2018-10-05T22:07:38.867Z,7.53
2018-10-05T22:10:08.874Z,8.83
2018-10-05T22:12:39.479Z,5.73
2018-10-05T22:15:10.115Z,6.70
2018-10-05T22:17:40.327Z,6.27
2018-10-05T22:20:10.487Z,5.60
2018-10-05T22:22:41.158Z,7.25
2018-10-05T22:25:11.470Z,5.60
2018-10-05T22:27:41.967Z,7.23
2018-10-05T22:30:12.083Z,7.22
2018-10-05T22:32:48.620Z,6.75
2018-10-05T22:35:19.349Z,7.03
2018-10-05T22:37:50.037Z,5.40
2018-10-05T22:40:20.228Z,6.70
2018-10-05T22:42:51.125Z,6.20
2018-10-05T22:45:21.411Z,6.27
2018-10-05T22:47:51.594Z,6.75
2018-10-05T22:50:22.781Z,6.70
2018-10-05T22:52:53.404Z,6.47
2018-10-05T22:57:58.486Z,7.07
2018-10-05T23:00:29.194Z,5.40
2018-10-05T23:02:59.557Z,6.43
2018-10-05T23:05:31.365Z,6.10
2018-10-05T23:08:01.341Z,6.37
2018-10-05T23:10:32.207Z,6.27
2018-10-05T23:13:02.023Z,5.47
2018-10-05T23:15:32.678Z,5.93
2018-10-05T23:18:02.642Z,7.97
2018-10-05T23:20:33.103Z,7.50
2018-10-05T23:23:03.274Z,4.08
2018-10-05T23:25:33.585Z,5.60
2018-10-05T23:28:03.809Z,5.85
2018-10-05T23:30:34.425Z,6.67
2018-10-05T23:33:05.099Z,5.72
2018-10-05T23:35:35.137Z,6.10
2018-10-05T23:38:06.712Z,8.10
2018-10-05T23:40:36.640Z,7.00
2018-10-05T23:43:06.811Z,8.05
2018-10-05T23:45:36.827Z,7.80
2018-10-05T23:48:06.785Z,8.20
2018-10-05T23:50:36.579Z,7.92
2018-10-05T23:53:06.807Z,7.53
2018-10-05T23:58:12.446Z,9.47
